WetterOnline ( https://www.wetteronline.de )

Wetter aktuell Cottbus

Aktuelles Wetter: Cottbus (70m)

6-stündlich | Neueste Meldungen
Ortszeit Temperatur Wetter
Di, 21.05. 20:00 21.8° C wolkig
Di, 21.05. 14:00 21.7° C bedeckt
Di, 21.05. 8:00 14.8° C wolkig
Di, 21.05. 2:00 12.0° C fast wolkenlos
Mo, 20.05. 20:00 17.3° C bedeckt
Mo, 20.05. 14:00 20.6° C leichter Regen
Mo, 20.05. 8:00 15.6° C wolkig
Mo, 20.05. 2:00 16.0° C wolkig
Ortszeit Temperatur Wetter
Di, 21.05. 20:00 21.8° C wolkig
Di, 21.05. 19:50 21.8° C wolkig
Di, 21.05. 19:40 22.0° C wolkig
Di, 21.05. 19:30 22.4° C bedeckt
Di, 21.05. 19:20 22.4° C bedeckt
Di, 21.05. 19:10 22.7° C bedeckt
Di, 21.05. 19:00 23.7° C wolkig
Di, 21.05. 18:30 23.8° C leicht bewölkt
Di, 21.05. 18:00 24.1° C leicht bewölkt
Di, 21.05. 17:30 23.9° C bewölkt
Di, 21.05. 17:00 23.5° C bedeckt
Ortszeit Relative Feuchte Sichtweite
Di, 21.05. 20:00 52% 70 km
Di, 21.05. 14:00 55% 55 km
Di, 21.05. 8:00 82% 17 km
Di, 21.05. 2:00 98% 13 km
Mo, 20.05. 20:00 84% 55 km
Mo, 20.05. 14:00 65% 7 km
Mo, 20.05. 8:00 81% 14 km
Mo, 20.05. 2:00 78% 28 km
Ortszeit Relative Feuchte Sichtweite
Di, 21.05. 20:00 52% 70 km
Di, 21.05. 19:50 52% -
Di, 21.05. 19:40 50% -
Di, 21.05. 19:30 48% 70 km
Di, 21.05. 19:20 48% -
Di, 21.05. 19:10 46% -
Di, 21.05. 19:00 43% 50 km
Di, 21.05. 18:30 43% 55 km
Di, 21.05. 18:00 43% 50 km
Di, 21.05. 17:30 45% 70 km
Di, 21.05. 17:00 43% 70 km
Ortszeit Niederschlagsmenge Niederschlagsart
Di, 21.05. 20:00 0.0 l/m2 in 12 Std. -
Di, 21.05. 14:00 0.0 l/m2 in 6 Std. -
Di, 21.05. 8:00 0.0 l/m2 in 12 Std. -
Di, 21.05. 2:00 0.0 l/m2 in 6 Std. -
Mo, 20.05. 20:00 6 l/m2 in 12 Std. Regen
Mo, 20.05. 14:00 0.1 l/m2 in 6 Std. Regen
Mo, 20.05. 8:00 0.0 l/m2 in 12 Std. -
Mo, 20.05. 2:00 0.0 l/m2 in 6 Std. -
Ortszeit Niederschlagsmenge Niederschlagsart
Di, 21.05. 20:00 0.0 l/m2 in 1 Std. -
Di, 21.05. 19:50 keine Meldung -
Di, 21.05. 19:40 keine Meldung -
Di, 21.05. 19:30 0.0 l/m2 in 1 Std. -
Di, 21.05. 19:20 keine Meldung -
Di, 21.05. 19:10 keine Meldung -
Di, 21.05. 19:00 0.0 l/m2 in 1 Std. -
Di, 21.05. 18:30 0.0 l/m2 in 1 Std. -
Di, 21.05. 18:00 0.0 l/m2 in 1 Std. -
Di, 21.05. 17:30 0.0 l/m2 in 1 Std. -
Di, 21.05. 17:00 0.0 l/m2 in 1 Std. -
Ortszeit Stärke Spitze Richtung
km/h Bft. km/h Grad Sektor
Di, 21.05. 20:00 7 2 30 310° NW
Di, 21.05. 14:00 11 2 18 60° NO
Di, 21.05. 8:00 7 2 18 100° O
Di, 21.05. 2:00 7 2 14 70° O
Mo, 20.05. 20:00 7 2 22 190° S
Mo, 20.05. 14:00 6 1 26 90° O
Mo, 20.05. 8:00 11 2 22 60° NO
Mo, 20.05. 2:00 7 2 18 80° O
Ortszeit Stärke Spitze Richtung
km/h Bft. km/h Grad Sektor
Di, 21.05. 20:00 7 2 24 310° NW
Di, 21.05. 19:50 7 2 - 310° NW
Di, 21.05. 19:40 7 2 - 330° NW
Di, 21.05. 19:30 9 2 24 340° N
Di, 21.05. 19:20 9 2 - 340° N
Di, 21.05. 19:10 11 2 - 310° NW
Di, 21.05. 19:00 14 3 29 290° W
Di, 21.05. 18:30 9 2 30 290° W
Di, 21.05. 18:00 7 2 18 270° W
Di, 21.05. 17:30 - - 13 - -
Di, 21.05. 17:00 7 2 18 300° NW
Ortszeit Untergrenze Bedeckung Gattung
total tief tief mittel hoch
Di, 21.05. 20:00 1500 m 8/8 2/8 - - -
Di, 21.05. 14:00 4800 m 8/8 8/8 - - -
Di, 21.05. 8:00 1500 m 6/8 2/8 - - -
Di, 21.05. 2:00 2400 m 1/8 1/8 - - -
Mo, 20.05. 20:00 2100 m 8/8 8/8 - - -
Mo, 20.05. 14:00 1800 m 8/8 8/8 - - -
Mo, 20.05. 8:00 8100 m 8/8 0/8 - - -
Mo, 20.05. 2:00 3300 m 8/8 1/8 - - -
Ortszeit Bedeckungsgrad in Achtel und Wolkenuntergrenze
Di, 21.05. 20:00 2(1500m) 8(3900m)
Di, 21.05. 19:50 2(1500m) 8(3900m)
Di, 21.05. 19:40 3(1500m) 8(3900m) 8(5100m)
Di, 21.05. 19:30 6(4200m) 8(5100m) 8(9000m)
Di, 21.05. 19:20 6(4200m) 8(5100m) 8(9000m)
Di, 21.05. 19:10 8(4800m) 8(8100m) 8(9000m)
Di, 21.05. 19:00 6(5100m) 8(8100m) 8(9000m)
Di, 21.05. 18:30 1(1500m) 3(5100m) 6(8700m)
Di, 21.05. 18:00 3(1500m)
Di, 21.05. 17:30 7(5400m) 7(5400m)
Di, 21.05. 17:00 8(5400m)
Ortszeit Luftdruck NN (hPa) Tendenz (hPa in 3 Std.)
Di, 21.05. 20:00 1005 + 0,5
Di, 21.05. 14:00 1004 + 0,4
Di, 21.05. 8:00 1004 + 0,9
Di, 21.05. 2:00 1002 + 0,5
Mo, 20.05. 20:00 1001 + 0,7
Mo, 20.05. 14:00 1002 - 0,3
Mo, 20.05. 8:00 1002 - 0,4
Mo, 20.05. 2:00 1004 0,0
Ortszeit Luftdruck NN (hPa) Tendenz (hPa in 3 Std.)
Di, 21.05. 20:00 1005 + 0,5
Di, 21.05. 19:50 1005 keine Meldung
Di, 21.05. 19:40 1005 keine Meldung
Di, 21.05. 19:30 1005 + 0,5
Di, 21.05. 19:20 1005 keine Meldung
Di, 21.05. 19:10 1005 keine Meldung
Di, 21.05. 19:00 1004 0,0
Di, 21.05. 18:30 1004 - 0,3
Di, 21.05. 18:00 1004 - 0,2
Di, 21.05. 17:30 1004 - 0,1
Di, 21.05. 17:00 1004 - 0,1
Ortszeit Schneehöhe (cm)
Di, 21.05. 20:00 -
Di, 21.05. 14:00 -
Di, 21.05. 8:00 -
Di, 21.05. 2:00 -
Mo, 20.05. 20:00 -
Mo, 20.05. 14:00 -
Mo, 20.05. 8:00 -
Mo, 20.05. 2:00 -
Ortszeit Schneehöhe (cm)
Di, 21.05. 20:00 -
Di, 21.05. 19:50 -
Di, 21.05. 19:40 -
Di, 21.05. 19:30 -
Di, 21.05. 19:20 -
Di, 21.05. 19:10 -
Di, 21.05. 19:00 -
Di, 21.05. 18:30 -
Di, 21.05. 18:00 -
Di, 21.05. 17:30 -
Di, 21.05. 17:00 -
Link zu dieser Seite / Seite empfehlen

Das Wetter in ...